createdAt,value
2022-08-30T00:02:10.980Z,10.50
2022-08-30T00:04:37.882Z,10.50
2022-08-30T00:07:04.896Z,10.50
2022-08-30T00:09:32.934Z,10.40
2022-08-30T00:11:59.987Z,10.50
2022-08-30T00:14:27.579Z,10.50
2022-08-30T00:16:54.760Z,10.60
2022-08-30T00:19:21.673Z,10.50
2022-08-30T00:21:48.546Z,10.50
2022-08-30T00:24:15.839Z,10.50
2022-08-30T00:26:42.650Z,10.60
2022-08-30T00:29:09.576Z,10.50
2022-08-30T00:31:36.659Z,10.50
2022-08-30T00:34:03.608Z,10.40
2022-08-30T00:36:30.489Z,10.40
2022-08-30T00:38:57.403Z,10.40
2022-08-30T00:41:24.283Z,10.40
2022-08-30T00:43:51.944Z,10.40
2022-08-30T00:46:19.037Z,10.40
2022-08-30T00:48:48.023Z,10.40
2022-08-30T00:51:15.997Z,10.40
2022-08-30T00:53:48.984Z,10.40
2022-08-30T00:56:17.069Z,10.50
2022-08-30T00:58:48.719Z,10.50
2022-08-30T01:01:16.729Z,10.60
2022-08-30T01:03:44.550Z,10.50
2022-08-30T01:06:15.529Z,10.50
2022-08-30T01:08:43.791Z,10.40
2022-08-30T01:11:12.766Z,10.40
2022-08-30T01:13:40.699Z,10.40
2022-08-30T01:16:08.804Z,10.50
2022-08-30T01:18:37.142Z,10.50
2022-08-30T01:21:31.659Z,10.40
2022-08-30T01:24:00.661Z,10.40
2022-08-30T01:26:29.774Z,10.40
2022-08-30T01:29:02.214Z,10.40
2022-08-30T01:31:29.905Z,10.40
2022-08-30T01:33:56.825Z,10.40
2022-08-30T01:36:25.126Z,10.40
2022-08-30T01:38:56.816Z,10.40
2022-08-30T01:41:23.719Z,10.50
2022-08-30T01:43:52.939Z,10.50
2022-08-30T01:46:24.336Z,10.60
2022-08-30T01:48:54.221Z,10.50
2022-08-30T01:51:24.093Z,10.40
2022-08-30T01:53:51.335Z,10.40
2022-08-30T01:56:19.183Z,10.30
2022-08-30T01:58:46.474Z,10.30
2022-08-30T02:01:16.064Z,10.30
2022-08-30T02:03:44.620Z,10.30
2022-08-30T02:06:14.816Z,10.40
2022-08-30T02:08:42.202Z,10.40
2022-08-30T02:11:10.256Z,10.40
2022-08-30T02:13:38.259Z,10.40
2022-08-30T02:16:07.748Z,10.30
2022-08-30T02:18:36.210Z,10.30
2022-08-30T02:21:03.402Z,10.40
2022-08-30T02:23:31.131Z,10.40
2022-08-30T02:25:59.041Z,10.50
2022-08-30T02:28:25.894Z,10.50
2022-08-30T02:30:53.822Z,10.40
2022-08-30T02:33:21.066Z,10.50
2022-08-30T02:35:48.118Z,10.40
2022-08-30T02:38:15.017Z,10.40
2022-08-30T02:40:42.050Z,10.30
2022-08-30T02:43:08.980Z,10.20
2022-08-30T02:45:35.942Z,10.20
2022-08-30T02:48:03.156Z,10.10
2022-08-30T02:50:31.203Z,10.10
2022-08-30T02:52:58.130Z,10.10
2022-08-30T02:55:25.504Z,10.20
2022-08-30T02:57:52.410Z,10.20
2022-08-30T03:00:20.756Z,10.20
2022-08-30T03:02:48.070Z,10.20
2022-08-30T03:05:16.620Z,10.30
2022-08-30T03:07:45.732Z,10.30
2022-08-30T03:10:14.156Z,10.30
2022-08-30T03:12:41.553Z,10.30
2022-08-30T03:15:13.135Z,10.30
2022-08-30T03:17:41.491Z,10.40
2022-08-30T03:20:09.210Z,10.40
2022-08-30T03:22:36.189Z,10.40
2022-08-30T03:25:04.705Z,10.30
2022-08-30T03:27:31.895Z,10.30
2022-08-30T03:29:58.784Z,10.30
2022-08-30T03:32:26.069Z,10.30
2022-08-30T03:34:53.009Z,10.30
2022-08-30T03:37:23.306Z,10.30
2022-08-30T03:39:52.715Z,10.30
2022-08-30T03:42:20.069Z,10.30
2022-08-30T03:44:48.541Z,10.30
2022-08-30T03:47:15.830Z,10.30
2022-08-30T03:49:43.211Z,10.30
2022-08-30T03:52:10.262Z,10.30
2022-08-30T03:54:38.575Z,10.30
2022-08-30T03:57:05.837Z,10.30
2022-08-30T03:59:32.945Z,10.30
2022-08-30T04:01:59.926Z,10.40
2022-08-30T04:04:27.103Z,10.40
2022-08-30T04:06:53.930Z,10.50
2022-08-30T04:09:20.940Z,10.50
2022-08-30T04:11:47.851Z,10.60
2022-08-30T04:14:14.802Z,10.50
2022-08-30T04:16:42.064Z,10.50
2022-08-30T04:19:09.326Z,10.50
2022-08-30T04:21:43.020Z,10.50
2022-08-30T04:24:11.152Z,10.50
2022-08-30T04:26:38.227Z,10.60
2022-08-30T04:29:05.714Z,10.60
2022-08-30T04:31:32.762Z,10.60
2022-08-30T04:33:59.645Z,10.60
2022-08-30T04:36:26.650Z,10.60
2022-08-30T04:38:53.583Z,10.50
2022-08-30T04:41:24.488Z,10.60
2022-08-30T04:43:51.597Z,10.60
2022-08-30T04:46:19.571Z,10.60
2022-08-30T04:48:47.006Z,10.60
2022-08-30T04:51:16.406Z,10.70
2022-08-30T04:53:44.542Z,10.70
2022-08-30T04:56:16.425Z,10.80
2022-08-30T04:58:47.833Z,10.80
2022-08-30T05:01:21.156Z,10.90
2022-08-30T05:03:52.217Z,10.90
2022-08-30T05:06:19.563Z,10.90
2022-08-30T05:08:47.080Z,11.00
2022-08-30T05:11:15.904Z,11.00
2022-08-30T05:13:43.453Z,11.10
2022-08-30T05:16:10.451Z,11.10
2022-08-30T05:18:37.864Z,11.10
2022-08-30T05:21:10.261Z,11.10
2022-08-30T05:23:38.840Z,11.20
2022-08-30T05:26:12.285Z,11.20
2022-08-30T05:28:39.938Z,11.20
2022-08-30T05:31:39.107Z,11.20
2022-08-30T05:34:06.192Z,11.30
2022-08-30T05:36:35.818Z,11.40
2022-08-30T05:39:05.591Z,11.40
2022-08-30T05:41:32.874Z,11.50
2022-08-30T05:44:01.463Z,11.50
2022-08-30T05:49:06.445Z,11.60
2022-08-30T05:51:35.465Z,11.70
2022-08-30T05:54:02.444Z,11.90
2022-08-30T05:56:37.173Z,12.00
2022-08-30T05:59:06.876Z,12.20
2022-08-30T06:01:40.017Z,12.40
2022-08-30T06:04:09.483Z,12.50
2022-08-30T06:06:38.443Z,12.50
2022-08-30T06:09:07.032Z,12.60
2022-08-30T06:11:35.018Z,12.60
2022-08-30T06:14:03.235Z,12.60
2022-08-30T06:16:30.650Z,12.60
2022-08-30T06:19:00.118Z,12.60
2022-08-30T06:21:33.831Z,12.60
2022-08-30T06:24:01.194Z,12.60
2022-08-30T06:26:29.391Z,12.70
2022-08-30T06:28:57.846Z,12.80
2022-08-30T06:31:26.278Z,12.80
2022-08-30T06:33:54.562Z,12.80
2022-08-30T06:36:24.699Z,12.90
2022-08-30T06:38:53.968Z,13.00
2022-08-30T06:41:23.948Z,13.00
2022-08-30T06:43:51.178Z,13.00
2022-08-30T06:46:21.443Z,13.10
2022-08-30T06:48:48.889Z,13.10
2022-08-30T06:51:19.498Z,13.00
2022-08-30T06:53:46.389Z,13.10
2022-08-30T06:56:16.594Z,13.20
2022-08-30T06:58:44.522Z,13.20
2022-08-30T07:01:21.117Z,13.30
2022-08-30T07:03:48.243Z,13.30
2022-08-30T07:06:16.185Z,13.40
2022-08-30T07:08:46.000Z,13.50
2022-08-30T07:11:12.864Z,13.60
2022-08-30T07:13:39.906Z,13.40
2022-08-30T07:16:14.259Z,13.40
2022-08-30T07:18:56.634Z,13.40
2022-08-30T07:21:38.593Z,13.40
2022-08-30T07:24:06.966Z,13.50
2022-08-30T07:26:39.299Z,13.50
2022-08-30T07:29:06.402Z,13.60
2022-08-30T07:31:34.470Z,13.70
2022-08-30T07:34:01.837Z,13.80
2022-08-30T07:36:28.985Z,13.90
2022-08-30T07:38:55.908Z,14.20
2022-08-30T07:41:29.802Z,14.50
2022-08-30T07:43:57.583Z,14.80
2022-08-30T07:46:25.095Z,15.10
2022-08-30T07:48:54.288Z,15.40
2022-08-30T07:51:24.024Z,15.60
2022-08-30T07:53:51.424Z,15.80
2022-08-30T07:56:18.793Z,15.90
2022-08-30T07:58:45.772Z,15.90
2022-08-30T08:01:13.966Z,16.00
2022-08-30T08:03:42.159Z,16.00
2022-08-30T08:06:11.680Z,16.00
2022-08-30T08:08:39.114Z,15.90
2022-08-30T08:11:16.065Z,16.00
2022-08-30T08:13:52.733Z,16.20
2022-08-30T08:16:24.012Z,16.30
2022-08-30T08:18:52.281Z,16.20
2022-08-30T08:21:19.134Z,16.30
2022-08-30T08:23:46.079Z,16.40
2022-08-30T08:26:13.301Z,16.50
2022-08-30T08:28:40.729Z,16.70
2022-08-30T08:31:23.629Z,16.70
2022-08-30T08:33:55.544Z,17.00
2022-08-30T08:36:22.534Z,16.80
2022-08-30T08:38:49.380Z,16.80
2022-08-30T08:41:49.778Z,16.70
2022-08-30T08:44:44.338Z,16.70
2022-08-30T08:47:25.435Z,16.70
2022-08-30T08:49:57.675Z,16.70
2022-08-30T08:52:54.913Z,16.80
2022-08-30T08:55:23.335Z,16.90
2022-08-30T08:57:52.359Z,16.80
2022-08-30T09:00:19.808Z,16.90
2022-08-30T09:02:55.809Z,17.10
2022-08-30T09:05:26.017Z,17.40
2022-08-30T09:07:59.519Z,17.80
2022-08-30T09:10:47.149Z,18.10
2022-08-30T09:13:14.876Z,18.00
2022-08-30T09:15:46.401Z,17.80
2022-08-30T09:18:19.365Z,17.70
2022-08-30T09:21:06.961Z,17.50
2022-08-30T09:23:33.907Z,17.00
2022-08-30T09:26:10.360Z,17.00
2022-08-30T09:28:51.767Z,16.90
2022-08-30T09:31:27.942Z,16.90
2022-08-30T09:33:55.792Z,16.90
2022-08-30T09:36:28.103Z,16.80
2022-08-30T09:39:31.533Z,16.80
2022-08-30T09:42:13.568Z,16.50
2022-08-30T09:44:40.541Z,16.50
2022-08-30T09:47:38.792Z,16.40
2022-08-30T09:50:19.822Z,16.50
2022-08-30T09:53:12.541Z,16.50
2022-08-30T09:56:08.003Z,16.40
2022-08-30T09:58:49.280Z,16.60
2022-08-30T10:01:27.992Z,16.80
2022-08-30T10:04:08.540Z,17.00
2022-08-30T10:07:00.695Z,16.70
2022-08-30T10:09:41.815Z,16.70
2022-08-30T10:12:25.225Z,16.70
2022-08-30T10:15:15.076Z,16.60
2022-08-30T10:18:07.835Z,16.60
2022-08-30T10:20:57.811Z,16.60
2022-08-30T10:24:08.991Z,16.40
2022-08-30T10:26:42.727Z,16.50
2022-08-30T10:29:19.272Z,16.70
2022-08-30T10:31:49.422Z,16.90
2022-08-30T10:34:34.216Z,17.20
2022-08-30T10:37:10.179Z,17.50
2022-08-30T10:40:00.664Z,17.70
2022-08-30T10:45:22.827Z,18.40
2022-08-30T10:48:08.562Z,18.40
2022-08-30T10:50:47.092Z,18.50
2022-08-30T10:53:23.440Z,18.50
2022-08-30T10:55:58.442Z,18.60
2022-08-30T10:58:25.478Z,18.50
2022-08-30T11:01:13.208Z,18.40
2022-08-30T11:04:14.333Z,18.40
2022-08-30T11:06:56.276Z,18.40
2022-08-30T11:09:42.062Z,18.50
2022-08-30T11:12:33.420Z,18.50
2022-08-30T11:15:13.073Z,18.60
2022-08-30T11:18:02.111Z,18.50
2022-08-30T11:20:34.585Z,18.60
2022-08-30T11:23:36.060Z,18.50
2022-08-30T11:26:08.783Z,18.50
2022-08-30T11:28:45.826Z,18.40
2022-08-30T11:31:36.582Z,18.20
2022-08-30T11:34:03.974Z,18.20
2022-08-30T11:36:37.474Z,18.10
2022-08-30T11:39:11.486Z,18.20
2022-08-30T11:41:48.209Z,18.10
2022-08-30T11:44:21.678Z,17.90
2022-08-30T11:47:02.800Z,17.70
2022-08-30T11:49:41.717Z,17.50
2022-08-30T11:52:28.767Z,17.40
2022-08-30T11:55:13.920Z,17.30
2022-08-30T11:58:01.502Z,17.30
2022-08-30T12:00:36.781Z,17.40
2022-08-30T12:03:14.026Z,17.40
2022-08-30T12:05:51.221Z,17.60
2022-08-30T12:08:21.176Z,17.70
2022-08-30T12:11:00.654Z,17.70
2022-08-30T12:13:42.631Z,17.70
2022-08-30T12:16:20.514Z,17.70
2022-08-30T12:18:57.154Z,17.70
2022-08-30T12:21:31.301Z,17.70
2022-08-30T12:24:29.975Z,17.70
2022-08-30T12:26:58.870Z,17.40
2022-08-30T12:29:31.106Z,17.30
2022-08-30T12:32:05.476Z,17.20
2022-08-30T12:34:35.720Z,17.40
2022-08-30T12:37:09.044Z,17.70
2022-08-30T12:39:38.630Z,18.10
2022-08-30T12:42:22.360Z,18.20
2022-08-30T12:44:52.383Z,18.20
2022-08-30T12:47:42.011Z,18.20
2022-08-30T12:50:12.156Z,18.40
2022-08-30T12:52:55.155Z,18.70
2022-08-30T12:55:26.785Z,18.90
2022-08-30T12:58:34.075Z,19.20
2022-08-30T13:01:11.615Z,19.00
2022-08-30T13:03:38.602Z,18.60
2022-08-30T13:06:07.890Z,18.10
2022-08-30T13:08:45.641Z,17.80
2022-08-30T13:11:26.071Z,17.80
2022-08-30T13:14:19.339Z,18.00
2022-08-30T13:16:46.854Z,18.20
2022-08-30T13:19:41.048Z,18.30
2022-08-30T13:22:31.577Z,18.40
2022-08-30T13:24:59.642Z,18.60
2022-08-30T13:27:26.973Z,18.80
2022-08-30T13:29:54.591Z,18.90
2022-08-30T13:32:21.892Z,19.00
2022-08-30T13:34:48.924Z,18.90
2022-08-30T13:40:08.202Z,18.60
2022-08-30T13:42:36.328Z,18.60
2022-08-30T13:45:03.738Z,18.90
2022-08-30T13:47:32.983Z,18.90
2022-08-30T13:50:00.976Z,18.70
2022-08-30T13:52:28.099Z,18.70
2022-08-30T13:54:57.070Z,18.80
2022-08-30T14:00:19.366Z,19.00
2022-08-30T14:02:55.085Z,19.30
2022-08-30T14:05:52.916Z,19.60
2022-08-30T14:11:13.023Z,19.60
2022-08-30T14:16:31.368Z,19.50
2022-08-30T14:19:00.111Z,19.40
2022-08-30T14:21:27.567Z,19.40
2022-08-30T14:23:56.511Z,19.20
2022-08-30T14:26:32.989Z,19.10
2022-08-30T14:29:09.208Z,19.10
2022-08-30T14:31:37.913Z,19.30
2022-08-30T14:34:05.886Z,19.40
2022-08-30T14:36:35.405Z,19.10
2022-08-30T14:39:08.201Z,18.90
2022-08-30T14:41:43.806Z,18.60
2022-08-30T14:44:12.668Z,18.30
2022-08-30T14:46:40.378Z,18.20
2022-08-30T14:49:07.513Z,18.10
2022-08-30T14:51:37.227Z,18.00
2022-08-30T14:54:04.621Z,17.80
2022-08-30T14:56:31.588Z,17.70
2022-08-30T14:59:00.603Z,17.50
2022-08-30T15:01:29.198Z,17.50
2022-08-30T15:03:57.401Z,17.60
2022-08-30T15:06:26.518Z,17.70
2022-08-30T15:08:54.675Z,17.70
2022-08-30T15:11:23.115Z,17.60
2022-08-30T15:13:52.882Z,17.70
2022-08-30T15:16:22.854Z,17.60
2022-08-30T15:18:51.563Z,17.60
2022-08-30T15:21:24.551Z,17.60
2022-08-30T15:23:53.218Z,17.50
2022-08-30T15:26:20.501Z,17.40
2022-08-30T15:28:47.908Z,17.40
2022-08-30T15:31:16.097Z,17.40
2022-08-30T15:33:44.340Z,17.30
2022-08-30T15:36:12.142Z,17.30
2022-08-30T15:38:39.620Z,17.30
2022-08-30T15:41:09.704Z,17.30
2022-08-30T15:43:37.730Z,17.40
2022-08-30T15:46:20.001Z,17.40
2022-08-30T15:48:47.201Z,17.50
2022-08-30T15:51:16.657Z,17.70
2022-08-30T15:53:45.275Z,17.80
2022-08-30T15:56:12.538Z,18.00
2022-08-30T15:58:39.795Z,18.10
2022-08-30T16:01:09.007Z,18.10
2022-08-30T16:03:37.759Z,18.10
2022-08-30T16:06:04.948Z,17.90
2022-08-30T16:08:31.807Z,17.80
2022-08-30T16:10:58.730Z,17.70
2022-08-30T16:13:25.587Z,17.70
2022-08-30T16:15:52.439Z,17.70
2022-08-30T16:18:19.512Z,17.60
2022-08-30T16:20:46.517Z,17.40
2022-08-30T16:23:13.703Z,17.20
2022-08-30T16:25:41.456Z,17.10
2022-08-30T16:28:09.367Z,17.10
2022-08-30T16:30:36.552Z,17.20
2022-08-30T16:33:03.645Z,17.20
2022-08-30T16:35:30.490Z,17.40
2022-08-30T16:37:57.705Z,17.40
2022-08-30T16:40:24.670Z,17.50
2022-08-30T16:42:51.852Z,17.50
2022-08-30T16:45:19.248Z,17.50
2022-08-30T16:47:46.261Z,17.50
2022-08-30T16:50:16.623Z,17.50
2022-08-30T16:52:44.790Z,17.50
2022-08-30T16:55:11.957Z,17.60
2022-08-30T16:57:39.926Z,17.70
2022-08-30T17:00:13.116Z,17.70
2022-08-30T17:02:46.641Z,17.80
2022-08-30T17:05:21.713Z,17.70
2022-08-30T17:07:48.699Z,17.60
2022-08-30T17:10:16.381Z,17.50
2022-08-30T17:12:50.375Z,17.50
2022-08-30T17:15:19.476Z,17.40
2022-08-30T17:17:47.452Z,17.30
2022-08-30T17:20:15.756Z,17.20
2022-08-30T17:22:42.661Z,17.10
2022-08-30T17:25:13.234Z,17.00
2022-08-30T17:27:40.507Z,17.00
2022-08-30T17:30:09.612Z,17.00
2022-08-30T17:32:36.531Z,17.00
2022-08-30T17:35:06.127Z,17.00
2022-08-30T17:37:33.319Z,17.00
2022-08-30T17:40:00.523Z,17.00
2022-08-30T17:42:29.818Z,16.90
2022-08-30T17:44:58.057Z,16.90
2022-08-30T17:47:28.292Z,16.80
2022-08-30T17:49:55.474Z,16.80
2022-08-30T17:52:22.371Z,16.70
2022-08-30T17:54:50.559Z,16.70
2022-08-30T17:57:17.939Z,16.70
2022-08-30T17:59:45.721Z,16.60
2022-08-30T18:02:14.725Z,16.50
2022-08-30T18:04:42.819Z,16.40
2022-08-30T18:07:11.971Z,16.30
2022-08-30T18:09:40.259Z,16.30
2022-08-30T18:12:07.494Z,16.20
2022-08-30T18:14:34.439Z,16.10
2022-08-30T18:17:02.643Z,16.10
2022-08-30T18:19:30.419Z,16.00
2022-08-30T18:21:57.926Z,15.90
2022-08-30T18:24:25.817Z,15.90
2022-08-30T18:26:54.764Z,15.70
2022-08-30T18:29:26.385Z,15.60
2022-08-30T18:32:01.513Z,15.40
2022-08-30T18:34:29.637Z,15.30
2022-08-30T18:36:56.858Z,15.20
2022-08-30T18:39:23.873Z,15.10
2022-08-30T18:41:51.087Z,15.00
2022-08-30T18:44:28.394Z,14.90
2022-08-30T18:46:57.772Z,14.80
2022-08-30T18:49:26.149Z,14.70
2022-08-30T18:51:53.465Z,14.60
2022-08-30T18:54:20.544Z,14.50
2022-08-30T18:56:47.688Z,14.40
2022-08-30T18:59:16.109Z,14.30
2022-08-30T19:01:44.286Z,14.20
2022-08-30T19:04:11.406Z,14.20
2022-08-30T19:06:49.907Z,14.10
2022-08-30T19:09:16.960Z,14.00
2022-08-30T19:11:44.580Z,14.00
2022-08-30T19:14:11.597Z,13.90
2022-08-30T19:16:40.831Z,13.80
2022-08-30T19:19:10.083Z,13.80
2022-08-30T19:21:40.062Z,13.80
2022-08-30T19:24:07.806Z,13.80
2022-08-30T19:26:35.698Z,13.70
2022-08-30T19:29:02.710Z,13.70
2022-08-30T19:31:30.026Z,13.70
2022-08-30T19:33:57.111Z,13.70
2022-08-30T19:36:24.475Z,13.60
2022-08-30T19:38:52.177Z,13.50
2022-08-30T19:41:22.846Z,13.50
2022-08-30T19:43:51.500Z,13.40
2022-08-30T19:46:18.417Z,13.30
2022-08-30T19:48:45.591Z,13.40
2022-08-30T19:51:15.304Z,13.30
2022-08-30T19:53:43.141Z,13.30
2022-08-30T19:56:10.105Z,13.30
2022-08-30T19:58:37.163Z,13.20
2022-08-30T20:03:52.026Z,13.20
2022-08-30T20:06:19.954Z,13.00
2022-08-30T20:08:47.509Z,13.00
2022-08-30T20:11:19.990Z,12.90
2022-08-30T20:13:48.174Z,12.80
2022-08-30T20:16:16.483Z,12.80
2022-08-30T20:18:44.799Z,12.80
2022-08-30T20:21:15.109Z,12.70
2022-08-30T20:23:43.102Z,12.70
2022-08-30T20:26:11.458Z,12.60
2022-08-30T20:28:38.893Z,12.60
2022-08-30T20:31:07.488Z,12.60
2022-08-30T20:33:37.814Z,12.60
2022-08-30T20:36:06.580Z,12.60
2022-08-30T20:38:33.910Z,12.50
2022-08-30T20:41:02.748Z,12.50
2022-08-30T20:43:31.595Z,12.50
2022-08-30T20:45:58.738Z,12.40
2022-08-30T20:48:28.632Z,12.30
2022-08-30T20:50:55.666Z,12.30
2022-08-30T20:53:22.704Z,12.30
2022-08-30T20:55:49.637Z,12.30
2022-08-30T20:58:16.714Z,12.20
2022-08-30T21:00:45.905Z,12.20
2022-08-30T21:03:26.147Z,12.10
2022-08-30T21:05:55.556Z,12.10
2022-08-30T21:08:22.712Z,12.10
2022-08-30T21:10:49.751Z,12.00
2022-08-30T21:13:17.243Z,12.00
2022-08-30T21:15:47.542Z,12.00
2022-08-30T21:18:14.831Z,11.90
2022-08-30T21:20:42.138Z,11.90
2022-08-30T21:23:09.559Z,11.80
2022-08-30T21:25:41.828Z,11.80
2022-08-30T21:28:09.321Z,11.90
2022-08-30T21:30:37.252Z,11.90
2022-08-30T21:33:05.894Z,11.90
2022-08-30T21:35:51.493Z,11.80
2022-08-30T21:38:19.884Z,11.80
2022-08-30T21:40:48.489Z,11.80
2022-08-30T21:43:16.155Z,11.80
2022-08-30T21:45:44.612Z,11.70
2022-08-30T21:48:13.023Z,11.70
2022-08-30T21:50:42.003Z,11.70
2022-08-30T21:53:09.534Z,11.60
2022-08-30T21:55:36.733Z,11.60
2022-08-30T21:58:03.766Z,11.60
2022-08-30T22:00:31.768Z,11.50
2022-08-30T22:02:58.682Z,11.50
2022-08-30T22:05:25.820Z,11.50
2022-08-30T22:07:52.701Z,11.50
2022-08-30T22:10:21.068Z,11.50
2022-08-30T22:12:48.193Z,11.50
2022-08-30T22:15:15.309Z,11.40
2022-08-30T22:17:43.567Z,11.50
2022-08-30T22:20:11.968Z,11.50
2022-08-30T22:22:45.633Z,11.50
2022-08-30T22:25:12.618Z,11.50
2022-08-30T22:27:39.507Z,11.40
2022-08-30T22:30:06.916Z,11.30
2022-08-30T22:32:33.795Z,11.20
2022-08-30T22:35:01.119Z,11.10
2022-08-30T22:37:29.978Z,11.10
2022-08-30T22:39:56.837Z,11.00
2022-08-30T22:42:23.649Z,11.00
2022-08-30T22:44:52.122Z,11.00
2022-08-30T22:47:18.976Z,11.00
2022-08-30T22:49:45.855Z,11.00
2022-08-30T22:52:14.336Z,11.00
2022-08-30T22:54:41.324Z,11.00
2022-08-30T22:57:09.183Z,10.90
2022-08-30T22:59:36.262Z,10.90
2022-08-30T23:02:03.508Z,10.90
2022-08-30T23:04:31.071Z,10.90
2022-08-30T23:06:57.995Z,10.80
2022-08-30T23:09:24.805Z,10.80
2022-08-30T23:11:51.666Z,10.70
2022-08-30T23:14:18.549Z,10.70
2022-08-30T23:16:45.453Z,10.70
2022-08-30T23:19:12.410Z,10.70
2022-08-30T23:21:39.411Z,10.60
2022-08-30T23:24:25.422Z,10.60
2022-08-30T23:27:10.806Z,10.60
2022-08-30T23:29:56.771Z,10.60
2022-08-30T23:32:42.041Z,10.50
2022-08-30T23:35:30.319Z,10.40
2022-08-30T23:38:22.273Z,10.30
2022-08-30T23:41:07.994Z,10.40
2022-08-30T23:43:54.289Z,10.40
2022-08-30T23:46:39.906Z,10.30
2022-08-30T23:49:25.523Z,10.20
2022-08-30T23:52:11.196Z,10.10
2022-08-30T23:54:57.454Z,10.00
2022-08-30T23:57:44.790Z,9.90
